Time;durP1;ratioP1;P1;durP2;ratioP2;P2;SDS_P1;SDS_P2;PMS_P1;PMS_P2;Temp;Humidity;BMP_temperature;BMP_pressure;BME280_temperature;BME280_humidity;BME280_pressure;Samples;Min_cycle;Max_cycle;Signal;HPM_P1;HPM_P2
2023/12/13 00:00:11;;;;;;;29.88;17.17;;;7.60;99.90;;;;;;5074242;28;20052;-69
2023/12/13 00:02:38;;;;;;;29.77;18.15;;;7.50;99.90;;;;;;5072309;28;20045;-69
2023/12/13 00:05:06;;;;;;;28.38;17.05;;;7.50;99.90;;;;;;5073354;28;20098;-69
2023/12/13 00:07:33;;;;;;;32.88;18.02;;;7.50;99.90;;;;;;5073744;28;20128;-68
2023/12/13 00:10:00;;;;;;;27.27;17.13;;;7.50;99.90;;;;;;5074004;28;20044;-68
2023/12/13 00:12:27;;;;;;;29.40;17.27;;;7.50;99.90;;;;;;5073140;28;20044;-68
2023/12/13 00:14:55;;;;;;;28.70;17.08;;;7.50;99.90;;;;;;5073679;28;20114;-68
2023/12/13 00:17:22;;;;;;;23.42;14.18;;;7.50;99.90;;;;;;5073364;28;20086;-68
2023/12/13 00:19:49;;;;;;;27.35;15.48;;;7.50;99.90;;;;;;5073810;28;20381;-68
2023/12/13 00:22:16;;;;;;;25.73;14.70;;;7.50;99.90;;;;;;5073847;28;20061;-68
2023/12/13 00:24:43;;;;;;;29.42;16.02;;;7.50;99.90;;;;;;5073109;28;20052;-68
2023/12/13 00:27:10;;;;;;;25.60;13.85;;;7.70;99.90;;;;;;5073507;28;20105;-69
2023/12/13 00:29:37;;;;;;;21.88;13.73;;;7.80;99.90;;;;;;5073312;28;20063;-68
2023/12/13 00:32:06;;;;;;;21.25;13.45;;;7.40;99.90;;;;;;5073095;28;20071;-68
2023/12/13 00:34:33;;;;;;;21.42;13.60;;;7.40;99.90;;;;;;5071256;28;20493;-68
2023/12/13 00:37:00;;;;;;;21.25;13.65;;;7.50;99.90;;;;;;5073471;28;20052;-69
2023/12/13 00:39:27;;;;;;;27.42;14.73;;;7.50;99.90;;;;;;5072938;28;20102;-69
2023/12/13 00:41:54;;;;;;;22.77;13.18;;;7.40;99.90;;;;;;5073157;28;20048;-68
2023/12/13 00:44:20;;;;;;;21.02;12.32;;;7.50;99.90;;;;;;5072908;28;20045;-68
2023/12/13 00:46:47;;;;;;;21.58;11.93;;;7.40;99.90;;;;;;5072671;28;20041;-68
2023/12/13 00:49:16;;;;;;;19.15;12.48;;;7.40;99.90;;;;;;5072994;28;20508;-68
2023/12/13 00:51:42;;;;;;;23.15;12.40;;;7.40;99.90;;;;;;5073248;28;20098;-69
2023/12/13 00:54:09;;;;;;;23.95;12.60;;;7.40;99.90;;;;;;5072502;28;20450;-69
2023/12/13 00:56:36;;;;;;;17.50;11.23;;;7.50;99.90;;;;;;5072919;28;20566;-69
2023/12/13 00:59:03;;;;;;;19.70;10.82;;;7.50;99.90;;;;;;5072850;28;20060;-69
2023/12/13 01:01:30;;;;;;;17.55;11.05;;;7.40;99.90;;;;;;5071156;28;20048;-69
2023/12/13 01:03:57;;;;;;;17.70;11.05;;;7.50;99.90;;;;;;5072948;28;20040;-69
2023/12/13 01:06:25;;;;;;;18.63;11.10;;;7.40;99.90;;;;;;5074189;28;20068;-69
2023/12/13 01:08:52;;;;;;;18.73;11.27;;;7.40;99.90;;;;;;5072009;28;20052;-69
2023/12/13 01:11:23;;;;;;;23.65;13.13;;;7.40;99.90;;;;;;5072693;28;20048;-69
2023/12/13 01:13:50;;;;;;;20.92;12.77;;;7.40;99.90;;;;;;5070323;28;20048;-70
2023/12/13 01:16:17;;;;;;;18.75;12.18;;;7.40;99.90;;;;;;5072560;28;20462;-69
2023/12/13 01:18:44;;;;;;;26.75;14.23;;;7.40;99.90;;;;;;5072553;28;20094;-69
2023/12/13 01:21:11;;;;;;;24.55;14.15;;;7.40;99.90;;;;;;5072073;28;20056;-69
2023/12/13 01:23:39;;;;;;;23.88;13.07;;;7.40;99.90;;;;;;5072691;28;20048;-69
2023/12/13 01:26:06;;;;;;;24.08;14.25;;;7.40;99.90;;;;;;5072617;28;20048;-69
2023/12/13 01:28:33;;;;;;;24.67;13.82;;;7.40;99.90;;;;;;5071478;28;20513;-70
2023/12/13 01:31:05;;;;;;;25.60;14.10;;;7.30;99.90;;;;;;5072359;28;20110;-69
2023/12/13 01:33:32;;;;;;;23.77;14.95;;;7.40;99.90;;;;;;5072513;28;20162;-70
2023/12/13 01:36:01;;;;;;;28.05;12.93;;;7.40;99.90;;;;;;5073068;28;20094;-70
2023/12/13 01:38:28;;;;;;;23.83;13.80;;;7.80;99.90;;;;;;5072261;28;20048;-69
2023/12/13 01:40:56;;;;;;;21.50;12.38;;;7.40;99.90;;;;;;5072465;28;20106;-68
2023/12/13 01:43:24;;;;;;;29.23;15.68;;;7.40;99.90;;;;;;5072343;28;20459;-68
2023/12/13 01:45:53;;;;;;;24.00;15.02;;;7.40;99.90;;;;;;5071962;28;20503;-69
2023/12/13 01:48:22;;;;;;;25.40;14.57;;;7.50;99.90;;;;;;5071993;28;20087;-69
2023/12/13 01:50:49;;;;;;;25.58;15.05;;;7.40;99.90;;;;;;5071508;28;20044;-69
2023/12/13 01:53:18;;;;;;;31.35;15.75;;;7.40;99.90;;;;;;5072993;28;20056;-69
2023/12/13 01:55:45;;;;;;;25.02;13.90;;;7.40;99.90;;;;;;5070144;28;20094;-69
2023/12/13 01:58:15;;;;;;;26.48;15.68;;;7.40;99.90;;;;;;5071900;28;20063;-69
2023/12/13 02:00:42;;;;;;;29.20;16.38;;;7.50;99.90;;;;;;5071784;28;20369;-69
2023/12/13 02:03:11;;;;;;;28.98;16.90;;;7.50;99.90;;;;;;5070294;28;20055;-68
2023/12/13 02:05:39;;;;;;;25.65;15.02;;;7.50;99.90;;;;;;5071624;28;20058;-69
2023/12/13 02:08:07;;;;;;;27.70;15.52;;;7.50;99.90;;;;;;5071365;28;20488;-69
2023/12/13 02:10:34;;;;;;;28.83;15.95;;;7.50;99.90;;;;;;5070936;28;20044;-70
2023/12/13 02:13:01;;;;;;;28.83;16.70;;;7.50;99.90;;;;;;5071523;28;20049;-70
2023/12/13 02:15:35;;;;;;;29.48;16.45;;;7.50;99.90;;;;;;5071440;28;20049;-70
2023/12/13 02:18:02;;;;;;;30.23;17.10;;;7.60;99.90;;;;;;5071006;28;20048;-69
2023/12/13 02:20:29;;;;;;;32.40;17.60;;;7.50;99.90;;;;;;5071556;28;20076;-69
2023/12/13 02:22:57;;;;;;;31.17;16.77;;;7.50;99.90;;;;;;5071571;28;20097;-69
2023/12/13 02:25:34;;;;;;;29.85;16.80;;;7.50;99.90;;;;;;5070561;28;21045;-69
2023/12/13 02:28:02;;;;;;;32.00;17.67;;;7.50;99.90;;;;;;5071072;28;20040;-69
2023/12/13 02:30:29;;;;;;;31.25;17.77;;;7.50;99.90;;;;;;5071227;28;20055;-69
2023/12/13 02:32:56;;;;;;;37.63;18.23;;;7.50;99.90;;;;;;5070927;28;20135;-70
2023/12/13 02:35:23;;;;;;;31.30;18.30;;;7.50;99.90;;;;;;5070779;28;20558;-70
2023/12/13 02:37:50;;;;;;;32.85;18.30;;;7.50;99.90;;;;;;5071286;28;20131;-69
2023/12/13 02:40:19;;;;;;;30.67;18.58;;;7.50;99.90;;;;;;5070591;28;20381;-69
2023/12/13 02:42:46;;;;;;;32.17;18.45;;;7.50;99.90;;;;;;5070973;28;20102;-69
2023/12/13 02:45:14;;;;;;;32.45;17.95;;;7.60;99.90;;;;;;5070298;28;20056;-70
2023/12/13 02:47:42;;;;;;;37.75;19.50;;;7.60;99.90;;;;;;5068909;28;20041;-69
2023/12/13 02:50:10;;;;;;;34.22;18.92;;;7.50;99.90;;;;;;5070944;28;20052;-69
2023/12/13 02:52:37;;;;;;;33.55;18.73;;;7.50;99.90;;;;;;5070567;28;20485;-69
2023/12/13 02:55:05;;;;;;;35.88;18.92;;;7.60;99.90;;;;;;5070684;28;20048;-69
2023/12/13 02:57:34;;;;;;;37.25;20.08;;;7.60;99.90;;;;;;5070668;28;20063;-69
2023/12/13 03:00:00;;;;;;;34.03;19.20;;;7.70;99.90;;;;;;5070075;28;20098;-68
2023/12/13 03:02:27;;;;;;;37.10;19.75;;;7.60;99.90;;;;;;5071782;28;20044;-69
2023/12/13 03:04:54;;;;;;;36.03;18.90;;;7.60;99.90;;;;;;5070639;28;20060;-68
2023/12/13 03:07:22;;;;;;;34.95;20.85;;;7.60;99.90;;;;;;5070173;28;20109;-69
2023/12/13 03:09:49;;;;;;;35.50;18.95;;;7.60;99.90;;;;;;5070588;28;20049;-69
2023/12/13 03:12:16;;;;;;;35.88;19.90;;;7.70;99.90;;;;;;5070718;28;20048;-69
2023/12/13 03:14:44;;;;;;;37.13;19.50;;;7.60;99.90;;;;;;5067588;28;20126;-69
2023/12/13 03:17:12;;;;;;;31.23;17.45;;;7.60;99.90;;;;;;5071314;28;20450;-69
2023/12/13 03:19:39;;;;;;;33.30;17.77;;;7.70;99.90;;;;;;5070641;28;20044;-68
2023/12/13 03:22:07;;;;;;;36.85;19.70;;;7.60;99.90;;;;;;5070242;28;20110;-69
2023/12/13 03:24:35;;;;;;;39.15;19.85;;;7.60;99.90;;;;;;5073493;28;20049;-69
2023/12/13 03:27:02;;;;;;;32.70;19.13;;;7.60;99.90;;;;;;5074852;28;20109;-69
2023/12/13 03:29:29;;;;;;;29.15;16.35;;;7.60;99.90;;;;;;5074339;28;20045;-69
2023/12/13 03:31:58;;;;;;;31.30;17.67;;;7.60;99.90;;;;;;5074586;28;20070;-69
2023/12/13 03:34:25;;;;;;;32.17;19.08;;;7.60;99.90;;;;;;5074265;28;20063;-69
2023/12/13 03:36:52;;;;;;;33.63;19.50;;;7.60;99.90;;;;;;5074248;28;20090;-69
2023/12/13 03:39:19;;;;;;;33.40;19.55;;;7.60;99.90;;;;;;5074340;28;20053;-69
2023/12/13 03:41:46;;;;;;;33.63;19.15;;;7.60;99.90;;;;;;5074861;28;20464;-69
2023/12/13 03:44:12;;;;;;;32.92;18.77;;;7.60;99.90;;;;;;5074262;28;20496;-68
2023/12/13 03:46:39;;;;;;;31.80;18.52;;;7.60;99.90;;;;;;5074479;28;20446;-68
2023/12/13 03:49:08;;;;;;;35.08;19.73;;;7.60;99.90;;;;;;5073546;28;20121;-69
2023/12/13 03:51:34;;;;;;;33.28;17.83;;;7.60;99.90;;;;;;5074269;28;20479;-68
2023/12/13 03:54:01;;;;;;;31.45;17.95;;;7.60;99.90;;;;;;5072162;28;20094;-69
2023/12/13 03:56:29;;;;;;;31.70;18.23;;;7.60;99.90;;;;;;5073560;28;20066;-69
2023/12/13 03:58:56;;;;;;;34.38;19.52;;;7.60;99.90;;;;;;5074072;28;20042;-69
2023/12/13 04:01:23;;;;;;;35.05;18.42;;;7.60;99.90;;;;;;5073703;28;20041;-69
2023/12/13 04:03:50;;;;;;;29.55;16.88;;;7.60;99.90;;;;;;5073386;28;20558;-69
2023/12/13 04:06:18;;;;;;;34.72;17.92;;;7.60;99.90;;;;;;5071775;28;20137;-69
2023/12/13 04:08:45;;;;;;;33.55;17.33;;;7.50;99.90;;;;;;5073704;28;20094;-69
2023/12/13 04:11:12;;;;;;;27.70;16.55;;;7.60;99.90;;;;;;5073509;28;20044;-69
2023/12/13 04:13:39;;;;;;;28.60;16.95;;;7.60;99.90;;;;;;5073711;28;20053;-69
2023/12/13 04:16:06;;;;;;;29.75;16.02;;;7.50;99.90;;;;;;5073933;28;20451;-69
2023/12/13 04:18:33;;;;;;;30.25;16.10;;;7.60;99.90;;;;;;5073270;28;20090;-69
2023/12/13 04:21:00;;;;;;;28.52;16.17;;;7.60;99.90;;;;;;5075147;28;20123;-68
2023/12/13 04:23:28;;;;;;;28.58;16.52;;;7.60;99.90;;;;;;5072526;28;20049;-67
2023/12/13 04:25:55;;;;;;;30.27;17.27;;;7.60;99.90;;;;;;5073073;28;20401;-68
2023/12/13 04:28:22;;;;;;;25.50;15.00;;;7.50;99.90;;;;;;5073460;28;20451;-70
2023/12/13 04:30:49;;;;;;;25.83;15.55;;;7.60;99.90;;;;;;5072576;28;20048;-68
2023/12/13 04:33:18;;;;;;;19.83;11.98;;;7.50;99.90;;;;;;5073613;28;20056;-71
2023/12/13 04:36:03;;;;;;;29.23;15.93;;;7.80;99.90;;;;;;5064364;28;20056;-69
2023/12/13 04:38:33;;;;;;;28.85;15.35;;;7.70;99.90;;;;;;5071408;28;20052;-68
2023/12/13 04:41:00;;;;;;;26.30;15.23;;;7.70;99.90;;;;;;5066823;28;20056;-69
2023/12/13 04:43:27;;;;;;;24.85;16.15;;;7.60;99.90;;;;;;5065603;28;20300;-69
2023/12/13 04:45:54;;;;;;;33.95;17.25;;;7.60;99.90;;;;;;5101443;28;20109;-68
2023/12/13 04:48:21;;;;;;;21.70;14.63;;;7.70;99.90;;;;;;5070736;28;20048;-69
2023/12/13 04:50:47;;;;;;;23.60;14.00;;;7.60;99.90;;;;;;5071313;28;20104;-68
2023/12/13 04:53:14;;;;;;;25.98;14.70;;;7.60;99.90;;;;;;5069723;28;20052;-69
2023/12/13 04:55:43;;;;;;;25.60;14.82;;;7.60;99.90;;;;;;5071017;28;20493;-69
2023/12/13 04:58:09;;;;;;;23.80;14.25;;;7.60;99.90;;;;;;5071134;28;20048;-69
2023/12/13 05:00:36;;;;;;;24.35;14.70;;;7.60;99.90;;;;;;5070845;28;20117;-69
2023/12/13 05:03:03;;;;;;;27.05;15.18;;;7.70;99.90;;;;;;5070847;28;20839;-69
2023/12/13 05:05:30;;;;;;;21.55;13.25;;;7.70;99.90;;;;;;5071325;28;20109;-69
2023/12/13 05:07:57;;;;;;;22.35;13.98;;;7.60;99.90;;;;;;5067439;28;20053;-68
2023/12/13 05:10:23;;;;;;;23.33;14.07;;;7.50;99.90;;;;;;5070962;28;20060;-68
2023/12/13 05:12:52;;;;;;;21.05;14.07;;;7.60;99.90;;;;;;5070012;28;20470;-68
2023/12/13 05:15:19;;;;;;;20.95;12.70;;;7.60;99.90;;;;;;5071055;28;20043;-68
2023/12/13 05:17:46;;;;;;;21.55;13.07;;;7.50;99.90;;;;;;5070359;28;20154;-69
2023/12/13 05:20:13;;;;;;;24.75;14.23;;;7.60;99.90;;;;;;5067481;28;20044;-69
2023/12/13 05:22:39;;;;;;;22.25;14.52;;;7.60;99.90;;;;;;5070214;28;20102;-69
2023/12/13 05:25:08;;;;;;;24.30;15.10;;;7.60;99.90;;;;;;5070302;28;20056;-68
2023/12/13 05:27:35;;;;;;;21.42;13.10;;;7.60;99.90;;;;;;5070097;28;20049;-68
2023/12/13 05:30:03;;;;;;;23.40;14.27;;;7.50;99.90;;;;;;5070486;28;20135;-68
2023/12/13 05:32:30;;;;;;;23.63;14.38;;;7.60;99.90;;;;;;5069592;28;20044;-68
2023/12/13 05:34:57;;;;;;;21.80;14.38;;;7.60;99.90;;;;;;5068435;28;20056;-68
2023/12/13 05:37:24;;;;;;;25.48;14.75;;;7.50;99.90;;;;;;5065494;28;20463;-68
2023/12/13 05:39:50;;;;;;;21.23;12.90;;;7.60;99.90;;;;;;5069892;28;20044;-69
2023/12/13 05:42:17;;;;;;;20.65;12.93;;;7.60;99.90;;;;;;5069461;28;20052;-69
2023/12/13 05:44:46;;;;;;;22.40;14.18;;;7.50;99.90;;;;;;5070663;28;20381;-70
2023/12/13 05:47:14;;;;;;;23.42;13.57;;;7.60;99.90;;;;;;5069952;28;20444;-68
2023/12/13 05:49:41;;;;;;;18.90;13.23;;;7.60;99.90;;;;;;5102168;28;20119;-69
2023/12/13 05:52:08;;;;;;;25.63;14.52;;;7.60;99.90;;;;;;5069207;28;20052;-69
2023/12/13 05:54:35;;;;;;;21.38;14.15;;;7.60;99.90;;;;;;5069827;28;20558;-69
2023/12/13 05:57:02;;;;;;;22.33;14.57;;;7.60;99.90;;;;;;5068620;28;20055;-70
2023/12/13 05:59:29;;;;;;;23.55;14.68;;;7.50;99.90;;;;;;5101948;28;20041;-70
2023/12/13 06:01:56;;;;;;;23.85;13.52;;;7.50;99.90;;;;;;5065706;28;20106;-68
2023/12/13 06:04:25;;;;;;;24.33;14.10;;;7.60;99.90;;;;;;5071078;28;20048;-68
2023/12/13 06:06:51;;;;;;;24.30;14.63;;;7.60;99.90;;;;;;5067969;28;20044;-68
2023/12/13 06:09:18;;;;;;;22.20;14.45;;;7.60;99.90;;;;;;5065296;28;20246;-69
2023/12/13 06:11:45;;;;;;;21.27;13.30;;;7.60;99.90;;;;;;5067494;28;20136;-69
2023/12/13 06:14:12;;;;;;;23.73;14.88;;;7.50;99.90;;;;;;5066297;28;20454;-69
2023/12/13 06:16:39;;;;;;;22.73;14.27;;;7.60;99.90;;;;;;5067385;28;20523;-69
2023/12/13 06:19:06;;;;;;;21.75;14.70;;;7.60;99.90;;;;;;5066659;28;20077;-69
2023/12/13 06:21:34;;;;;;;22.08;14.02;;;7.60;99.90;;;;;;5069206;28;20094;-68
2023/12/13 06:24:02;;;;;;;22.33;14.60;;;7.60;99.90;;;;;;5066198;28;20109;-69
2023/12/13 06:26:29;;;;;;;22.85;14.45;;;7.60;99.90;;;;;;5068120;28;20041;-69
2023/12/13 06:28:56;;;;;;;23.40;15.30;;;7.60;99.90;;;;;;5070287;28;20101;-69
2023/12/13 06:31:23;;;;;;;23.33;14.38;;;7.60;99.90;;;;;;5068528;28;20052;-70
2023/12/13 06:33:50;;;;;;;23.20;14.30;;;8.40;99.90;;;;;;5069941;28;20072;-69
2023/12/13 06:36:17;;;;;;;24.05;16.00;;;7.60;99.90;;;;;;5069135;28;20408;-69
2023/12/13 06:38:46;;;;;;;25.83;15.82;;;7.70;99.90;;;;;;5071332;28;20048;-69
2023/12/13 06:41:13;;;;;;;23.85;15.23;;;7.60;99.90;;;;;;5070252;28;20053;-69
2023/12/13 06:43:40;;;;;;;24.23;15.52;;;7.70;99.90;;;;;;5067910;28;20063;-70
2023/12/13 06:46:07;;;;;;;24.70;16.05;;;8.90;99.90;;;;;;5067181;28;20056;-70
2023/12/13 06:48:33;;;;;;;22.80;13.80;;;7.70;99.90;;;;;;5068857;28;20044;-70
2023/12/13 06:51:00;;;;;;;25.67;16.17;;;7.70;99.90;;;;;;5069838;28;20525;-69
2023/12/13 06:53:27;;;;;;;22.80;14.52;;;7.70;99.90;;;;;;5069111;28;20310;-69
2023/12/13 06:55:56;;;;;;;22.73;14.75;;;7.70;99.90;;;;;;5070313;28;20047;-70
2023/12/13 06:58:23;;;;;;;21.48;14.43;;;7.70;99.90;;;;;;5069296;28;20041;-69
2023/12/13 07:00:50;;;;;;;19.83;13.63;;;7.70;99.90;;;;;;5070880;28;20048;-70
2023/12/13 07:03:18;;;;;;;25.33;14.77;;;7.70;99.90;;;;;;5070511;28;20143;-69
2023/12/13 07:05:45;;;;;;;25.85;15.80;;;7.70;99.90;;;;;;5070101;28;20070;-70
2023/12/13 07:08:12;;;;;;;25.38;15.77;;;7.70;99.90;;;;;;5070653;28;20051;-69
2023/12/13 07:10:39;;;;;;;25.00;15.68;;;7.70;99.90;;;;;;5070853;28;20077;-70
2023/12/13 07:13:08;;;;;;;26.42;15.98;;;7.70;99.90;;;;;;5070234;28;20048;-69
2023/12/13 07:15:34;;;;;;;29.17;16.00;;;7.80;99.90;;;;;;5069573;28;20075;-68
2023/12/13 07:18:01;;;;;;;28.70;14.77;;;7.70;99.90;;;;;;5070557;28;20044;-69
2023/12/13 07:20:30;;;;;;;29.02;15.82;;;7.70;99.90;;;;;;5070086;28;20052;-69
2023/12/13 07:22:57;;;;;;;30.80;16.27;;;7.80;99.90;;;;;;5070219;28;20076;-69
2023/12/13 07:25:24;;;;;;;28.00;16.13;;;7.80;99.90;;;;;;5070809;28;20431;-69
2023/12/13 07:27:51;;;;;;;30.38;16.50;;;7.80;99.90;;;;;;5070032;28;20052;-69
2023/12/13 07:30:19;;;;;;;25.63;15.63;;;7.80;99.90;;;;;;5070239;28;20118;-69
2023/12/13 07:32:46;;;;;;;27.90;15.55;;;7.80;99.90;;;;;;5070400;28;20041;-70
2023/12/13 07:35:13;;;;;;;26.00;15.57;;;7.80;99.90;;;;;;5069856;28;20049;-70
2023/12/13 07:37:40;;;;;;;24.80;17.25;;;7.70;99.90;;;;;;5070379;28;20053;-70
2023/12/13 07:40:08;;;;;;;27.38;17.27;;;7.80;99.90;;;;;;5068474;28;20094;-69
2023/12/13 07:42:35;;;;;;;25.50;16.60;;;7.80;99.90;;;;;;5069557;28;20569;-69
2023/12/13 07:45:02;;;;;;;26.50;16.63;;;7.80;99.90;;;;;;5070605;28;20045;-70
2023/12/13 07:47:31;;;;;;;28.10;16.27;;;7.80;99.90;;;;;;5069469;28;20075;-69
2023/12/13 07:49:57;;;;;;;28.58;17.30;;;7.80;99.90;;;;;;5070038;28;20044;-69
2023/12/13 07:52:24;;;;;;;25.60;16.60;;;7.90;99.90;;;;;;5070227;28;20052;-70
2023/12/13 07:54:52;;;;;;;28.38;17.40;;;7.80;99.90;;;;;;5069630;28;20110;-70
2023/12/13 07:57:21;;;;;;;26.65;16.52;;;7.90;99.90;;;;;;5071118;28;20052;-69
2023/12/13 07:59:47;;;;;;;27.17;17.20;;;7.90;99.90;;;;;;5068260;28;20056;-70
2023/12/13 08:02:14;;;;;;;27.90;16.48;;;7.90;99.90;;;;;;5069347;28;20056;-70
2023/12/13 08:04:43;;;;;;;28.13;17.60;;;7.80;99.90;;;;;;5069845;28;20048;-69
2023/12/13 08:07:10;;;;;;;24.48;16.40;;;7.90;99.90;;;;;;5066693;28;20139;-70
2023/12/13 08:09:37;;;;;;;26.33;17.50;;;7.90;99.90;;;;;;5069894;28;20040;-70
2023/12/13 08:12:05;;;;;;;28.35;17.10;;;7.90;99.90;;;;;;5072656;28;20050;-69
2023/12/13 08:14:33;;;;;;;29.02;17.70;;;7.90;99.90;;;;;;5072441;28;20063;-70
2023/12/13 08:17:02;;;;;;;28.95;17.88;;;7.90;99.90;;;;;;5072690;28;20048;-70
2023/12/13 08:19:28;;;;;;;31.25;19.90;;;7.90;99.90;;;;;;5073221;28;20048;-70
2023/12/13 08:21:57;;;;;;;30.88;16.83;;;7.90;99.90;;;;;;5073319;28;20059;-70
2023/12/13 08:24:24;;;;;;;29.77;17.38;;;7.90;99.90;;;;;;5072799;28;20052;-69
2023/12/13 08:26:50;;;;;;;31.15;18.40;;;8.00;99.90;;;;;;5073398;28;20158;-70
2023/12/13 08:29:17;;;;;;;34.47;18.35;;;8.00;99.90;;;;;;5073173;28;20048;-70
2023/12/13 08:31:45;;;;;;;31.35;18.05;;;8.00;99.90;;;;;;5072782;28;20055;-70
2023/12/13 08:34:12;;;;;;;31.48;18.58;;;7.90;99.90;;;;;;5073254;28;20091;-70
2023/12/13 08:36:39;;;;;;;29.15;16.63;;;8.00;99.90;;;;;;5073239;28;20055;-70
2023/12/13 08:39:09;;;;;;;30.38;17.90;;;8.00;99.90;;;;;;5073042;28;20056;-70
2023/12/13 08:41:36;;;;;;;32.00;18.13;;;8.00;99.90;;;;;;5073227;28;20049;-70
2023/12/13 08:44:03;;;;;;;30.73;19.35;;;8.00;99.90;;;;;;5072274;28;20104;-70
2023/12/13 08:46:30;;;;;;;30.15;18.42;;;8.00;99.90;;;;;;5072999;28;20044;-70
2023/12/13 08:48:57;;;;;;;30.27;18.70;;;8.10;99.90;;;;;;5072962;28;20053;-70
2023/12/13 08:51:24;;;;;;;29.02;17.85;;;8.00;99.90;;;;;;5070384;28;20443;-70
2023/12/13 08:53:54;;;;;;;31.63;18.45;;;8.00;99.90;;;;;;5072943;28;20709;-70
2023/12/13 08:56:22;;;;;;;26.73;17.10;;;8.00;99.90;;;;;;5072985;28;20125;-70
2023/12/13 08:58:49;;;;;;;33.30;21.10;;;8.10;99.90;;;;;;5070231;28;20558;-70
2023/12/13 09:01:16;;;;;;;32.17;18.67;;;8.10;99.90;;;;;;5072495;28;20553;-70
2023/12/13 09:03:43;;;;;;;34.30;19.75;;;8.10;99.90;;;;;;5072862;28;20105;-70
2023/12/13 09:06:10;;;;;;;32.95;20.48;;;8.10;99.90;;;;;;5072237;28;20117;-70
2023/12/13 09:08:37;;;;;;;29.30;19.27;;;8.10;99.90;;;;;;5072295;28;20114;-70
2023/12/13 09:11:05;;;;;;;27.30;17.20;;;8.10;99.90;;;;;;5072590;28;20048;-70
2023/12/13 09:13:33;;;;;;;35.53;20.63;;;8.10;99.90;;;;;;5071826;28;20492;-70
2023/12/13 09:16:00;;;;;;;31.73;17.95;;;8.10;99.90;;;;;;5072466;28;20056;-70
2023/12/13 09:18:27;;;;;;;35.13;19.83;;;8.10;99.90;;;;;;5070299;28;20048;-70
2023/12/13 09:20:54;;;;;;;32.85;19.25;;;8.40;99.90;;;;;;5070806;28;20106;-70
2023/12/13 09:23:22;;;;;;;26.83;17.45;;;8.20;99.90;;;;;;5072323;28;20044;-70
2023/12/13 09:25:49;;;;;;;33.20;18.42;;;8.20;99.90;;;;;;5071215;28;20124;-70
2023/12/13 09:28:16;;;;;;;37.72;19.65;;;8.30;99.90;;;;;;5071720;28;20098;-70
2023/12/13 09:30:45;;;;;;;31.48;18.67;;;8.30;99.90;;;;;;5071894;28;20044;-69
2023/12/13 09:33:13;;;;;;;32.10;20.85;;;8.50;99.90;;;;;;5069618;28;20049;-69
2023/12/13 09:35:40;;;;;;;31.58;19.27;;;8.40;99.90;;;;;;5072073;28;20079;-70
2023/12/13 09:38:07;;;;;;;35.15;19.92;;;8.40;99.90;;;;;;5072288;28;20075;-70
2023/12/13 09:40:34;;;;;;;35.88;20.88;;;8.50;99.90;;;;;;5071178;28;20044;-69
2023/12/13 09:43:02;;;;;;;31.08;18.95;;;8.50;99.90;;;;;;5072058;28;20443;-69
2023/12/13 09:45:31;;;;;;;33.75;21.05;;;8.50;99.90;;;;;;5071773;28;20508;-69
2023/12/13 09:48:00;;;;;;;34.55;19.52;;;8.50;99.90;;;;;;5071343;28;20050;-69
2023/12/13 09:50:27;;;;;;;38.60;23.52;;;8.60;99.90;;;;;;5071553;28;20060;-70
2023/12/13 09:52:55;;;;;;;34.30;20.70;;;8.60;99.90;;;;;;5071933;28;20056;-70
2023/12/13 09:55:22;;;;;;;36.03;20.27;;;8.70;99.90;;;;;;5071546;28;20396;-70
2023/12/13 09:57:49;;;;;;;37.60;21.70;;;8.70;99.90;;;;;;5071593;28;20459;-70
2023/12/13 10:00:17;;;;;;;36.63;20.67;;;8.70;99.90;;;;;;5069503;28;20040;-70
2023/12/13 10:02:46;;;;;;;39.67;22.05;;;8.70;99.90;;;;;;5071021;28;20052;-70
2023/12/13 10:05:17;;;;;;;37.33;19.58;;;8.80;99.90;;;;;;5071590;28;20048;-69
2023/12/13 10:07:45;;;;;;;35.17;20.38;;;8.90;99.90;;;;;;5071495;28;20052;-70
2023/12/13 10:10:11;;;;;;;34.10;19.20;;;9.00;99.90;;;;;;5070655;28;20543;-70
2023/12/13 10:12:38;;;;;;;35.25;18.95;;;9.00;99.90;;;;;;5071222;28;20091;-70
2023/12/13 10:15:10;;;;;;;29.88;17.75;;;9.00;99.90;;;;;;5069513;28;20118;-69
2023/12/13 10:17:38;;;;;;;31.27;19.23;;;9.10;99.90;;;;;;5069213;28;20075;-69
2023/12/13 10:20:07;;;;;;;37.75;19.75;;;9.10;99.90;;;;;;5071141;28;20091;-69
2023/12/13 10:22:36;;;;;;;32.28;20.40;;;9.00;99.90;;;;;;5071070;28;20072;-69
2023/12/13 10:25:04;;;;;;;32.13;19.38;;;9.10;99.90;;;;;;5069270;28;20045;-70
2023/12/13 10:27:31;;;;;;;34.15;19.30;;;9.10;99.90;;;;;;5070868;28;20048;-70
2023/12/13 10:29:59;;;;;;;38.50;18.95;;;9.20;99.90;;;;;;5070210;28;20090;-70
2023/12/13 10:32:26;;;;;;;31.10;18.02;;;9.30;99.90;;;;;;5068794;28;20045;-69
2023/12/13 10:34:53;;;;;;;32.03;18.80;;;9.20;99.90;;;;;;5070921;28;20393;-70
2023/12/13 10:37:20;;;;;;;40.03;18.88;;;9.30;99.90;;;;;;5070568;28;20052;-68
2023/12/13 10:39:53;;;;;;;30.88;18.15;;;9.40;99.90;;;;;;5068768;28;20154;-69
2023/12/13 10:42:22;;;;;;;38.88;19.17;;;9.40;99.90;;;;;;5070534;28;20072;-69
2023/12/13 10:44:52;;;;;;;34.78;20.15;;;9.40;99.90;;;;;;5070309;28;20520;-69
2023/12/13 10:47:23;;;;;;;37.95;21.15;;;9.40;99.90;;;;;;5070447;28;20102;-69
2023/12/13 10:49:52;;;;;;;33.95;20.65;;;9.30;99.90;;;;;;5070653;28;20441;-69
2023/12/13 10:52:21;;;;;;;28.23;17.30;;;9.30;99.90;;;;;;5070178;28;20106;-70
2023/12/13 10:54:51;;;;;;;31.35;19.20;;;9.30;99.90;;;;;;5070696;28;20052;-71
2023/12/13 10:57:18;;;;;;;32.88;20.17;;;9.30;99.90;;;;;;5070748;28;20060;-70
2023/12/13 10:59:46;;;;;;;33.97;19.08;;;9.30;99.90;;;;;;5070204;28;20117;-70
2023/12/13 11:02:17;;;;;;;36.63;18.60;;;9.30;99.90;;;;;;5068238;28;20052;-70
2023/12/13 11:04:44;;;;;;;34.75;18.30;;;9.20;99.90;;;;;;5069913;28;20059;-69
2023/12/13 11:07:11;;;;;;;34.17;20.35;;;9.30;99.90;;;;;;5070603;28;20511;-70
2023/12/13 11:09:50;;;;;;;34.85;19.88;;;9.20;99.90;;;;;;5070521;28;20122;-71
2023/12/13 11:12:19;;;;;;;33.00;19.92;;;9.10;99.90;;;;;;5069028;28;20056;-70
2023/12/13 11:14:49;;;;;;;31.08;19.00;;;9.10;99.90;;;;;;5070357;28;20044;-69
2023/12/13 11:17:16;;;;;;;32.70;19.38;;;9.10;99.90;;;;;;5068198;28;20040;-70
2023/12/13 11:19:43;;;;;;;36.35;18.73;;;9.10;99.90;;;;;;5069998;28;20049;-70
2023/12/13 11:22:12;;;;;;;34.67;19.13;;;9.00;99.90;;;;;;5070198;28;20052;-70
2023/12/13 11:24:41;;;;;;;38.45;20.02;;;9.10;99.90;;;;;;5068028;28;20068;-70
2023/12/13 11:27:14;;;;;;;41.83;22.25;;;9.10;99.90;;;;;;5069714;28;20059;-69
2023/12/13 11:29:45;;;;;;;30.80;19.30;;;9.10;99.90;;;;;;5070127;28;20147;-69
2023/12/13 11:32:12;;;;;;;34.03;20.40;;;9.10;99.90;;;;;;5070275;28;20063;-69
2023/12/13 11:34:42;;;;;;;32.00;18.13;;;9.10;99.90;;;;;;5069896;28;20064;-69
2023/12/13 11:37:11;;;;;;;32.25;18.33;;;9.10;99.90;;;;;;5068445;28;20408;-70
2023/12/13 11:39:39;;;;;;;33.17;17.63;;;9.10;99.90;;;;;;5069680;28;20048;-69
2023/12/13 11:42:07;;;;;;;28.50;17.75;;;9.10;99.90;;;;;;5069918;28;20082;-70
2023/12/13 11:44:37;;;;;;;35.03;20.00;;;9.10;99.90;;;;;;5071191;28;20474;-70
2023/12/13 11:47:05;;;;;;;31.42;19.95;;;9.10;99.90;;;;;;5071525;28;20488;-69
2023/12/13 11:49:32;;;;;;;29.88;17.50;;;9.00;99.90;;;;;;5074083;28;20048;-69
2023/12/13 11:52:01;;;;;;;32.72;18.45;;;9.10;99.90;;;;;;5073855;28;20093;-69
2023/12/13 11:54:27;;;;;;;31.50;19.35;;;9.10;99.90;;;;;;5073427;28;20071;-69
2023/12/13 11:56:54;;;;;;;30.77;19.33;;;9.10;99.90;;;;;;5073945;28;20059;-69
2023/12/13 11:59:21;;;;;;;31.85;18.38;;;9.10;99.90;;;;;;5073833;28;20518;-69
2023/12/13 12:01:50;;;;;;;32.38;18.70;;;9.10;99.90;;;;;;5073407;28;20481;-69
2023/12/13 12:04:18;;;;;;;36.95;18.98;;;9.10;99.90;;;;;;5073839;28;20492;-69
2023/12/13 12:06:48;;;;;;;32.83;17.58;;;9.10;99.90;;;;;;5073786;28;20550;-69
2023/12/13 12:09:16;;;;;;;30.60;18.02;;;9.00;99.90;;;;;;5073320;28;20095;-69
2023/12/13 12:11:43;;;;;;;35.78;18.75;;;9.00;99.90;;;;;;5073323;28;20068;-69
2023/12/13 12:14:11;;;;;;;30.60;17.20;;;9.00;99.90;;;;;;5073683;28;20064;-71
2023/12/13 12:16:38;;;;;;;31.77;17.85;;;9.00;99.90;;;;;;5072780;28;20044;-68
2023/12/13 12:19:07;;;;;;;31.50;18.38;;;8.90;99.90;;;;;;5073732;28;20052;-69
2023/12/13 12:21:36;;;;;;;28.88;18.00;;;9.00;99.90;;;;;;5073200;28;20523;-69
2023/12/13 12:24:03;;;;;;;31.10;19.65;;;8.90;99.90;;;;;;5072909;28;20056;-70
2023/12/13 12:26:30;;;;;;;28.17;18.35;;;8.90;99.90;;;;;;5074717;28;20492;-70
2023/12/13 12:28:58;;;;;;;30.83;19.17;;;8.80;99.90;;;;;;5073973;28;20053;-70
2023/12/13 12:31:25;;;;;;;31.58;18.27;;;8.80;99.90;;;;;;5072312;28;20044;-70
2023/12/13 12:33:55;;;;;;;35.17;19.42;;;8.80;99.90;;;;;;5073408;28;20389;-70
2023/12/13 12:36:23;;;;;;;31.02;17.55;;;8.70;99.90;;;;;;5072409;28;20057;-70